Weather at Gvulot Airstrip

Public forecast

Using degrees Celsius for public forecast. Weather courtesy of forecast.io.

Closest aviation weather report (METAR) to Gvulot Airstrip

Closest report is El Arish International Airport, 33.3 nm (61.6 km) WSW.

2024/02/23 06:00 (retrieved 1 hour ago)

HEAR 230600Z 18002KT CAVOK 11/08 Q1020 NOSIG

Closest aviation forecast (TAF) to Gvulot Airstrip

Closest forecast is El Arish International Airport, 33.3 nm (61.6 km) WSW.

2024/02/23 06:42 (retrieved 25 minutes ago)

TAF HEAR 230500Z 2306/2412 31008KT 9999 SCT025